Time;durP1;ratioP1;P1;durP2;ratioP2;P2;SDS_P1;SDS_P2;PMS_P1;PMS_P2;Temp;Humidity;BMP_temperature;BMP_pressure;BME280_temperature;BME280_humidity;BME280_pressure;Samples;Min_cycle;Max_cycle;Signal;HPM_P1;HPM_P2
2023/06/10 00:01:40;;;;;;;5.40;5.07;;;;;;;17.87;100.00;107219.78;6245193;23;20153;-58
2023/06/10 00:04:07;;;;;;;5.03;4.73;;;;;;;17.86;100.00;143433.44;6245345;23;20252;-62
2023/06/10 00:06:35;;;;;;;5.53;5.13;;;;;;;17.86;100.00;150525.28;6245957;23;20157;-61
2023/06/10 00:09:04;;;;;;;6.17;5.33;;;;;;;17.55;100.00;150448.97;6245722;23;20157;-63
2023/06/10 00:11:32;;;;;;;5.70;5.30;;;;;;;17.76;100.00;150502.41;6245804;23;20266;-62
2023/06/10 00:13:59;;;;;;;5.57;5.07;;;;;;;17.62;100.00;136987.31;6245080;23;20219;-61
2023/06/10 00:16:26;;;;;;;5.70;5.10;;;;;;;17.54;100.00;127899.22;6245180;23;20163;-61
2023/06/10 00:19:00;;;;;;;6.17;5.73;;;;;;;17.25;100.00;115786.75;6245657;23;20191;-61
2023/06/10 00:21:27;;;;;;;9.93;6.03;;;;;;;17.35;100.00;109129.06;6245442;23;20572;-61
2023/06/10 00:23:55;;;;;;;6.67;6.17;;;;;;;17.37;100.00;107797.69;6245760;23;20164;-61
2023/06/10 00:26:22;;;;;;;15.03;6.70;;;;;;;17.40;100.00;108470.19;6245447;23;20630;-62
2023/06/10 00:28:49;;;;;;;7.10;6.40;;;;;;;17.33;100.00;107456.94;6244917;23;20179;-62
2023/06/10 00:31:17;;;;;;;8.20;6.90;;;;;;;17.25;100.00;107443.28;6245307;23;20497;-62
2023/06/10 00:33:44;;;;;;;15.20;7.50;;;;;;;17.28;100.00;106782.00;6245288;23;20672;-61
2023/06/10 00:36:12;;;;;;;7.90;6.00;;;;;;;17.17;100.00;109428.38;6245046;23;20240;-61
2023/06/10 00:38:40;;;;;;;6.30;5.87;;;;;;;17.19;100.00;108098.19;6245206;23;20592;-62
2023/06/10 00:41:07;;;;;;;9.33;5.93;;;;;;;17.07;100.00;105743.59;6245254;23;20157;-61
2023/06/10 00:43:34;;;;;;;7.17;5.97;;;;;;;17.09;100.00;107746.56;6244632;23;20200;-61
2023/06/10 00:46:01;;;;;;;6.30;5.53;;;;;;;17.01;100.00;105067.66;6245600;23;20634;-61
2023/06/10 00:48:28;;;;;;;6.60;5.37;;;;;;;17.09;100.00;107413.25;6245090;23;20163;-61
2023/06/10 00:50:55;;;;;;;8.87;7.60;;;;;;;17.01;100.00;98745.91;6245224;23;20157;-61
2023/06/10 00:53:24;;;;;;;7.90;7.23;;;;;;;17.21;100.00;96119.38;6244892;23;20161;-62
2023/06/10 00:55:52;;;;;;;9.83;6.50;;;;;;;17.09;100.00;99090.94;6244761;23;20188;-61
2023/06/10 00:58:19;;;;;;;10.70;6.80;;;;;;;17.03;100.00;99746.69;6244752;23;20640;-62
2023/06/10 01:00:46;;;;;;;7.63;7.00;;;;;;;16.85;100.00;94733.38;6245261;23;20231;-62
2023/06/10 01:03:14;;;;;;;8.00;7.23;;;;;;;16.90;100.00;90096.84;6245128;23;20157;-62
2023/06/10 01:05:42;;;;;;;8.33;7.60;;;;;;;16.78;100.00;82133.06;6245324;23;20686;-61
2023/06/10 01:08:15;;;;;;;9.40;8.10;;;;;;;16.57;100.00;79790.28;6245511;23;20165;-61
2023/06/10 01:10:51;;;;;;;7.40;6.70;;;;;;;16.59;100.00;76160.09;6245349;23;20497;-62
2023/06/10 01:13:23;;;;;;;13.93;8.37;;;;;;;16.46;100.00;66259.22;6244332;23;20187;-62
2023/06/10 01:15:51;;;;;;;16.40;9.57;;;;;;;16.55;100.00;60680.03;6245075;23;20500;-60
2023/06/10 01:18:18;;;;;;;10.67;9.53;;;;;;;16.47;100.00;58701.41;6244482;23;20260;-62
2023/06/10 01:20:46;;;;;;;18.37;11.37;;;;;;;16.53;100.00;50837.00;6244843;23;20595;-61
2023/06/10 01:23:14;;;;;;;17.50;10.30;;;;;;;16.63;100.00;50518.28;6244837;23;20626;-61
2023/06/10 01:25:45;;;;;;;18.10;10.00;;;;;;;16.61;100.00;53465.91;6244940;23;20449;-62
2023/06/10 01:28:18;;;;;;;11.60;9.63;;;;;;;16.64;100.00;60031.88;6244405;23;20157;-61
2023/06/10 01:30:55;;;;;;;8.93;8.23;;;;;;;16.46;100.00;62642.03;6244680;23;20500;-61
2023/06/10 01:33:28;;;;;;;10.83;8.47;;;;;;;16.58;100.00;64627.38;6244202;23;20187;-61
2023/06/10 01:35:57;;;;;;;13.03;8.43;;;;;;;16.55;100.00;62323.03;6245074;23;20163;-61
2023/06/10 01:38:27;;;;;;;19.80;9.87;;;;;;;16.47;100.00;60671.69;6217757;23;20164;-61
2023/06/10 01:40:56;;;;;;;9.80;8.90;;;;;;;16.44;100.00;59027.16;6244835;23;20493;-61
2023/06/10 01:43:23;;;;;;;8.90;7.90;;;;;;;16.41;100.00;60008.59;6244222;23;20200;-62
2023/06/10 01:45:50;;;;;;;12.60;8.00;;;;;;;16.48;100.00;61986.38;6244718;23;20493;-62
2023/06/10 01:48:17;;;;;;;11.70;7.83;;;;;;;16.32;100.00;64270.25;6244268;23;20171;-62
2023/06/10 01:50:44;;;;;;;8.90;7.70;;;;;;;16.27;100.00;65251.03;6244552;23;20163;-62
2023/06/10 01:53:11;;;;;;;11.70;8.10;;;;;;;16.31;100.00;66900.66;6244433;23;20188;-60
2023/06/10 01:55:40;;;;;;;9.33;8.50;;;;;;;16.25;100.00;62947.97;6244098;23;20167;-61
2023/06/10 01:58:07;;;;;;;8.33;7.70;;;;;;;16.32;100.00;65585.50;6244440;23;20165;-61
2023/06/10 02:00:33;;;;;;;11.53;8.77;;;;;;;16.27;100.00;64922.22;6244418;23;20163;-61
2023/06/10 02:03:00;;;;;;;12.37;8.73;;;;;;;16.29;100.00;63938.25;6244106;23;20153;-62
2023/06/10 02:05:27;;;;;;;9.50;8.83;;;;;;;16.27;100.00;60979.16;6244918;23;20172;-61
2023/06/10 02:07:54;;;;;;;10.93;8.43;;;;;;;16.34;100.00;60329.69;6244069;23;20244;-61
2023/06/10 02:10:21;;;;;;;13.33;8.30;;;;;;;16.41;100.00;58367.09;6244434;23;20492;-61
2023/06/10 02:12:49;;;;;;;14.37;9.80;;;;;;;16.32;100.00;60984.41;6243969;23;20259;-61
2023/06/10 02:15:16;;;;;;;10.50;9.70;;;;;;;16.26;100.00;63277.63;6244329;23;20182;-61
2023/06/10 02:17:44;;;;;;;10.70;9.67;;;;;;;16.18;100.00;63597.50;6244432;23;20516;-61
2023/06/10 02:20:13;;;;;;;15.00;10.07;;;;;;;16.14;100.00;63922.28;6244124;23;20164;-61
2023/06/10 02:22:40;;;;;;;11.73;9.57;;;;;;;15.97;100.00;63904.13;6243866;23;20160;-61
2023/06/10 02:25:08;;;;;;;11.63;9.10;;;;;;;15.81;100.00;61587.72;6243625;23;20211;-61
2023/06/10 02:27:35;;;;;;;16.80;8.37;;;;;;;15.60;100.00;60581.25;6243972;23;20172;-61
2023/06/10 02:30:03;;;;;;;13.00;8.80;;;;;;;15.72;100.00;63876.66;6243933;23;20207;-62
2023/06/10 02:32:30;;;;;;;13.43;8.87;;;;;;;15.77;100.00;66839.22;6243837;23;20177;-61
2023/06/10 02:34:57;;;;;;;12.27;8.77;;;;;;;15.53;100.00;66154.56;6244281;23;20160;-61
2023/06/10 02:37:24;;;;;;;9.33;8.40;;;;;;;15.54;100.00;63856.88;6243885;23;20164;-62
2023/06/10 02:39:51;;;;;;;15.30;8.90;;;;;;;15.47;100.00;61552.13;6244238;23;20496;-61
2023/06/10 02:42:18;;;;;;;12.37;9.60;;;;;;;15.63;100.00;58289.00;6243700;22;20236;-61
2023/06/10 02:44:45;;;;;;;15.53;8.63;;;;;;;15.61;100.00;59598.94;6244197;23;20589;-61
2023/06/10 02:47:13;;;;;;;14.60;8.80;;;;;;;15.59;100.00;63534.06;6243857;23;20161;-62
2023/06/10 02:49:40;;;;;;;16.10;8.97;;;;;;;15.64;100.00;65181.50;6243901;23;20157;-61
2023/06/10 02:52:08;;;;;;;9.13;8.23;;;;;;;15.55;100.00;67471.19;6244545;23;20643;-61
2023/06/10 02:54:35;;;;;;;13.60;9.20;;;;;;;15.62;100.00;64522.41;6243858;23;20163;-62
2023/06/10 02:57:02;;;;;;;9.77;8.83;;;;;;;15.72;100.00;66832.88;6243792;23;20161;-62
2023/06/10 02:59:29;;;;;;;20.20;11.50;;;;;;;15.82;100.00;62245.81;6244273;23;20189;-62
2023/06/10 03:01:56;;;;;;;15.73;12.50;;;;;;;15.87;100.00;57657.38;6244102;23;20361;-62
2023/06/10 03:04:25;;;;;;;15.80;11.73;;;;;;;15.85;100.00;57000.22;6244314;23;20191;-62
2023/06/10 03:06:52;;;;;;;17.70;11.33;;;;;;;15.99;100.00;61935.69;6243710;23;20209;-62
2023/06/10 03:09:19;;;;;;;28.23;13.27;;;;;;;16.08;100.00;65887.78;6244265;23;20164;-61
2023/06/10 03:11:46;;;;;;;23.00;13.13;;;;;;;16.15;100.00;72477.66;6244020;23;20235;-61
2023/06/10 03:14:13;;;;;;;20.87;13.70;;;;;;;16.74;100.00;76510.41;6244152;23;20659;-62
2023/06/10 03:16:40;;;;;;;27.90;13.77;;;;;;;17.65;100.00;140045.38;6244222;23;20551;-61
2023/06/10 03:19:08;;;;;;;22.13;14.20;;;;;;;18.48;100.00;150682.94;6244149;23;20231;-61
2023/06/10 03:21:37;;;;;;;29.83;15.87;;;;;;;19.44;100.00;150924.72;6243888;23;20191;-62
2023/06/10 03:24:05;;;;;;;29.20;17.57;;;;;;;19.76;100.00;151004.91;6244124;23;20219;-62
2023/06/10 03:26:31;;;;;;;27.57;19.97;;;;;;;19.57;100.00;150957.81;6243100;23;20176;-62
2023/06/10 03:28:58;;;;;;;27.43;17.57;;;;;;;19.35;100.00;150901.75;6244065;23;20164;-62
2023/06/10 03:31:25;;;;;;;24.17;17.83;;;;;;;19.07;100.00;150830.53;6243757;23;20240;-62
2023/06/10 03:33:52;;;;;;;45.67;21.77;;;;;;;19.10;100.00;150839.41;6243621;23;20195;-62
2023/06/10 03:36:19;;;;;;;39.67;21.03;;;;;;;19.14;100.00;150849.59;6243983;23;20164;-61
2023/06/10 03:38:47;;;;;;;36.00;21.73;;;;;;;19.22;100.00;150867.44;6245607;23;20157;-61
2023/06/10 03:41:14;;;;;;;40.20;22.70;;;;;;;19.40;100.00;150913.22;6245741;23;20231;-62
2023/06/10 03:43:41;;;;;;;35.60;21.53;;;;;;;19.51;100.00;150941.28;6245755;23;20200;-62
2023/06/10 03:46:08;;;;;;;28.70;21.67;;;;;;;19.64;100.00;150974.38;6245478;23;20157;-61
2023/06/10 03:48:36;;;;;;;34.57;22.80;;;;;;;19.82;100.00;151018.88;6245830;23;20157;-61
2023/06/10 03:51:03;;;;;;;29.60;23.10;;;;;;;19.98;100.00;151060.94;6245302;23;20168;-61
2023/06/10 03:53:30;;;;;;;30.37;23.10;;;;;;;20.23;100.00;151123.31;6245832;23;20181;-61
2023/06/10 03:55:58;;;;;;;33.95;22.92;;;;;;;20.30;100.00;151141.19;6246009;23;20244;-62
2023/06/10 03:58:25;;;;;;;30.47;21.97;;;;;;;20.53;100.00;151198.50;6245803;23;20160;-61
2023/06/10 04:00:52;;;;;;;35.43;21.87;;;;;;;20.59;100.00;151212.47;6245413;23;20161;-61
2023/06/10 04:03:21;;;;;;;26.97;19.50;;;;;;;21.00;100.00;151316.97;6245461;23;20236;-61
2023/06/10 04:05:51;;;;;;;26.70;18.95;;;;;;;21.11;100.00;151344.97;6245930;23;20211;-62
2023/06/10 04:08:18;;;;;;;24.17;19.17;;;;;;;21.36;100.00;151407.44;6245778;23;20222;-62
2023/06/10 04:10:45;;;;;;;37.58;24.20;;;;;;;21.55;100.00;151454.63;6245160;23;20215;-61
2023/06/10 04:13:14;;;;;;;33.08;25.33;;;;;;;21.81;100.00;151522.16;6245488;23;20640;-62
2023/06/10 04:15:41;;;;;;;38.85;26.15;;;;;;;21.97;100.00;151561.75;6244976;23;20184;-62
2023/06/10 04:18:08;;;;;;;44.63;25.92;;;;;;;22.06;100.00;151584.69;6245036;23;20219;-62
2023/06/10 04:20:35;;;;;;;50.10;33.22;;;;;;;22.12;100.00;151598.69;6245498;23;20609;-62
2023/06/10 04:23:02;;;;;;;47.63;34.10;;;;;;;22.27;100.00;151636.97;6245404;23;20157;-61
2023/06/10 04:25:28;;;;;;;53.00;32.22;;;;;;;22.42;100.00;151673.91;6245516;23;20595;-62
2023/06/10 04:27:55;;;;;;;47.33;28.98;;;;;;;22.42;100.00;151675.19;6245033;23;20223;-62
2023/06/10 04:30:24;;;;;;;38.53;28.88;;;;;;;22.54;100.00;151704.53;6245095;23;20163;-62
2023/06/10 04:32:51;;;;;;;46.60;31.33;;;;;;;22.65;100.00;151732.59;6245278;23;20516;-62
2023/06/10 04:35:18;;;;;;;47.20;30.27;;;;;;;22.68;100.00;151740.25;6245359;23;20508;-62
2023/06/10 04:37:45;;;;;;;47.92;26.30;;;;;;;22.76;100.00;151760.69;6245378;23;20157;-62
2023/06/10 04:40:13;;;;;;;51.60;25.48;;;;;;;22.65;100.00;151732.59;6245109;23;20161;-63
2023/06/10 04:42:40;;;;;;;40.60;25.13;;;;;;;22.85;100.00;151783.66;6245192;23;20204;-61
2023/06/10 04:45:10;;;;;;;31.13;24.10;;;;;;;23.18;100.00;151866.56;6245298;23;20616;-62
2023/06/10 04:47:38;;;;;;;41.65;27.13;;;;;;;23.20;100.00;151873.00;6244995;23;20551;-62
2023/06/10 04:50:06;;;;;;;45.03;28.42;;;;;;;23.35;100.00;151909.97;6245302;23;20243;-63
2023/06/10 04:52:33;;;;;;;48.97;28.10;;;;;;;23.37;100.00;151913.81;6244864;23;20223;-62
2023/06/10 04:55:00;;;;;;;42.53;27.65;;;;;;;23.54;100.00;151957.25;6244839;23;20172;-61
2023/06/10 04:57:27;;;;;;;41.38;25.73;;;;;;;23.75;100.00;152010.84;6244780;23;20153;-62
2023/06/10 04:59:54;;;;;;;28.85;20.83;;;;;;;23.97;100.00;152067.03;6245077;23;20184;-62
2023/06/10 05:02:21;;;;;;;18.85;16.95;;;;;;;24.05;100.00;152087.44;6245071;23;20227;-62
2023/06/10 05:04:49;;;;;;;19.13;15.10;;;;;;;24.17;100.00;152116.84;6244980;23;20181;-62
2023/06/10 05:07:16;;;;;;;14.70;13.15;;;;;;;24.24;100.00;152133.44;6244994;23;20239;-63
2023/06/10 05:09:43;;;;;;;19.25;13.07;;;;;;;24.35;100.00;152162.81;6244759;23;20156;-62
2023/06/10 05:12:10;;;;;;;12.80;11.48;;;;;;;24.38;100.00;152170.47;6245512;23;20592;-62
2023/06/10 05:14:37;;;;;;;16.48;11.00;;;;;;;24.61;100.00;152227.97;6245023;23;20695;-63
2023/06/10 05:17:05;;;;;;;14.98;11.25;;;;;;;24.84;100.00;152285.41;6245378;23;20496;-63
2023/06/10 05:19:32;;;;;;;13.02;11.70;;;;;;;25.08;100.00;152345.50;6245067;23;20161;-62
2023/06/10 05:22:00;;;;;;;11.32;9.82;;;;;;;25.12;100.00;152356.97;6244477;23;20161;-62
2023/06/10 05:24:27;;;;;;;12.05;10.75;;;;;;;25.31;100.00;152404.25;6244735;23;20157;-62
2023/06/10 05:26:55;;;;;;;18.83;10.90;;;;;;;25.38;100.00;152422.13;6244528;23;20160;-62
2023/06/10 05:29:22;;;;;;;17.60;10.70;;;;;;;25.48;100.00;152447.72;6244781;23;20157;-62
2023/06/10 05:31:49;;;;;;;12.40;9.65;;;;;;;25.66;100.00;152493.78;6244877;23;20160;-63
2023/06/10 05:34:16;;;;;;;12.13;10.00;;;;;;;25.57;100.00;152469.47;6244595;23;20187;-63
2023/06/10 05:36:43;;;;;;;13.60;9.32;;;;;;;25.80;100.00;152528.28;6244777;23;20157;-63
2023/06/10 05:39:11;;;;;;;10.35;8.48;;;;;;;25.66;100.00;152493.78;6244448;23;20156;-62
2023/06/10 05:41:38;;;;;;;14.73;8.32;;;;;;;26.01;100.00;152581.97;6244397;23;20160;-63
2023/06/10 05:44:05;;;;;;;9.02;8.15;;;;;;;26.25;100.00;152642.09;6244448;23;20279;-63
2023/06/10 05:46:32;;;;;;;8.77;7.82;;;;;;;26.41;100.00;152681.72;6244674;23;20603;-63
2023/06/10 05:48:59;;;;;;;15.18;7.63;;;;;;;26.78;100.00;152777.59;6244795;23;20161;-63
2023/06/10 05:51:27;;;;;;;15.68;8.38;;;;;;;26.95;100.00;152818.56;6244250;23;20172;-63
2023/06/10 05:53:54;;;;;;;12.57;10.98;;;;;;;26.88;100.00;152801.97;6244743;23;20180;-64
2023/06/10 05:56:22;;;;;;;10.93;9.88;;;;;;;27.15;100.00;152869.78;6244546;23;20491;-63
2023/06/10 05:58:50;;;;;;;17.38;10.93;;;;;;;27.39;100.00;152931.16;6217285;23;20169;-63
2023/06/10 06:01:17;;;;;;;12.77;11.13;;;;;;;27.73;100.00;153015.66;6243860;23;20157;-62
2023/06/10 06:03:44;;;;;;;15.45;9.45;;;;;;;27.95;100.00;153071.97;6244456;23;20539;-64
2023/06/10 06:06:11;;;;;;;12.60;9.68;;;;;;;28.32;98.77;153165.47;6244356;23;20171;-63
2023/06/10 06:08:38;;;;;;;10.52;9.50;;;;;;;28.28;96.89;153156.50;6244435;23;20165;-63
2023/06/10 06:11:05;;;;;;;13.90;12.45;;;;;;;28.77;98.93;153280.72;6244263;23;20157;-63
2023/06/10 06:13:33;;;;;;;17.50;15.70;;;;;;;28.94;97.20;153323.03;6243983;23;20184;-64
2023/06/10 06:16:00;;;;;;;18.67;16.90;;;;;;;29.24;96.93;153399.81;6244650;23;20167;-63
2023/06/10 06:18:27;;;;;;;19.45;17.15;;;;;;;29.50;88.89;153466.50;6243825;23;20175;-63
2023/06/10 06:20:53;;;;;;;19.70;16.63;;;;;;;30.08;84.34;153612.63;6244423;23;20484;-64
2023/06/10 06:23:20;;;;;;;18.00;15.45;;;;;;;30.35;80.57;153681.81;6244035;23;20153;-63
2023/06/10 06:25:47;;;;;;;16.50;14.73;;;;;;;31.00;76.60;153846.03;6244025;23;20598;-64
2023/06/10 06:28:14;;;;;;;11.95;11.10;;;;;;;31.84;72.79;154058.94;6244131;23;20531;-63
2023/06/10 06:30:43;;;;;;;8.95;8.20;;;;;;;32.08;66.59;154120.56;6244391;23;20545;-64
2023/06/10 06:33:10;;;;;;;8.68;7.68;;;;;;;31.77;64.28;154041.00;6244544;23;20177;-64
2023/06/10 06:35:38;;;;;;;8.43;6.70;;;;;;;31.55;62.73;153985.84;6244081;23;20168;-63
2023/06/10 06:38:05;;;;;;;10.75;7.63;;;;;;;31.45;65.19;153958.84;6244300;23;20188;-63
2023/06/10 06:40:32;;;;;;;11.52;7.88;;;;;;;31.38;69.07;153940.91;6244004;23;20218;-63
2023/06/10 06:42:58;;;;;;;9.93;5.38;;;;;;;30.80;65.37;153794.69;6244059;23;20209;-63
2023/06/10 06:45:25;;;;;;;15.77;10.73;;;;;;;30.47;72.00;153710.09;6244212;23;20157;-64
2023/06/10 06:47:53;;;;;;;9.85;8.70;;;;;;;30.01;73.95;153594.66;6245017;23;20157;-64
2023/06/10 06:50:20;;;;;;;13.10;9.20;;;;;;;30.14;75.34;153626.69;6244190;23;20168;-63
2023/06/10 06:52:47;;;;;;;10.60;8.15;;;;;;;30.22;72.98;153648.47;6244249;23;20164;-63
2023/06/10 06:55:14;;;;;;;8.68;7.88;;;;;;;30.43;71.78;153699.78;6243900;23;20199;-63
2023/06/10 06:57:41;;;;;;;8.70;7.82;;;;;;;30.46;70.35;153707.50;6244241;23;20235;-63
2023/06/10 07:00:09;;;;;;;8.48;7.80;;;;;;;30.94;67.90;153829.28;6244356;23;20228;-63
2023/06/10 07:02:36;;;;;;;8.02;7.20;;;;;;;30.58;67.16;153739.56;6244142;23;20157;-64
2023/06/10 07:05:05;;;;;;;6.53;5.85;;;;;;;30.23;69.64;153651.06;6244606;23;20244;-63
2023/06/10 07:07:32;;;;;;;5.60;3.80;;;;;;;30.21;69.75;153645.97;6243787;23;20634;-63
2023/06/10 07:09:59;;;;;;;6.32;4.40;;;;;;;29.67;75.22;153507.47;6244357;23;20657;-64
2023/06/10 07:12:26;;;;;;;5.03;2.83;;;;;;;29.88;68.12;153562.63;6245350;23;20161;-63
2023/06/10 07:14:53;;;;;;;2.40;2.20;;;;;;;29.71;63.08;153519.00;6246058;23;20631;-64
2023/06/10 07:17:19;;;;;;;3.10;2.50;;;;;;;29.33;66.08;153421.66;6246194;23;20161;-63
2023/06/10 07:19:48;;;;;;;3.40;2.50;;;;;;;29.85;61.60;153554.91;6245754;23;20156;-64
2023/06/10 07:22:17;;;;;;;3.40;2.30;;;;;;;30.28;66.74;153663.88;6245734;23;20165;-63
2023/06/10 07:24:44;;;;;;;2.95;2.58;;;;;;;30.63;60.38;153751.09;6246006;23;20481;-63
2023/06/10 07:27:11;;;;;;;4.47;2.45;;;;;;;30.85;58.29;153808.75;6246103;23;20161;-63
2023/06/10 07:29:38;;;;;;;4.07;2.22;;;;;;;30.93;56.67;153828.03;6245806;23;20165;-64
2023/06/10 07:32:05;;;;;;;6.25;2.72;;;;;;;30.90;57.38;153820.31;6246105;23;20157;-63
2023/06/10 07:34:32;;;;;;;4.18;2.70;;;;;;;30.73;58.25;153778.00;6245943;23;20180;-63
2023/06/10 07:36:59;;;;;;;4.57;2.55;;;;;;;30.63;56.81;153751.09;6245905;23;20164;-64
2023/06/10 07:39:27;;;;;;;5.60;3.85;;;;;;;30.34;64.44;153678.00;6245785;23;20157;-63
2023/06/10 07:41:56;;;;;;;12.82;3.90;;;;;;;30.22;68.10;153648.47;6245947;23;20157;-63
2023/06/10 07:44:24;;;;;;;7.68;4.28;;;;;;;30.28;70.30;153663.88;6245423;23;20204;-63
2023/06/10 07:46:51;;;;;;;9.93;4.93;;;;;;;29.63;75.28;153497.22;6245802;23;20199;-63
2023/06/10 07:49:19;;;;;;;16.10;4.68;;;;;;;29.81;76.20;153543.38;6245485;23;20161;-63
2023/06/10 07:51:46;;;;;;;4.40;4.10;;;;;;;29.74;74.48;153526.75;6245739;23;20157;-63
2023/06/10 07:54:13;;;;;;;7.45;4.38;;;;;;;29.56;75.21;153479.31;6245250;23;20177;-64
2023/06/10 07:56:41;;;;;;;5.88;2.75;;;;;;;30.01;70.91;153593.38;6245672;23;20244;-64
2023/06/10 07:59:08;;;;;;;2.60;2.40;;;;;;;30.12;59.54;153622.88;6245319;23;20157;-63
2023/06/10 08:01:37;;;;;;;2.10;2.00;;;;;;;30.47;58.89;153710.09;6245615;23;20596;-64
2023/06/10 08:04:05;;;;;;;2.10;2.00;;;;;;;30.70;55.67;153769.03;6245622;23;20465;-64
2023/06/10 08:06:31;;;;;;;2.30;2.20;;;;;;;30.89;55.09;153817.78;6245651;23;20203;-63
2023/06/10 08:08:59;;;;;;;2.50;2.30;;;;;;;30.75;54.69;153781.88;6245204;23;20157;-64
2023/06/10 08:11:28;;;;;;;2.70;2.50;;;;;;;31.08;55.13;153865.25;6245493;23;20161;-64
2023/06/10 08:13:56;;;;;;;3.95;2.58;;;;;;;31.20;53.45;153896.00;6244944;23;20181;-64
2023/06/10 08:16:23;;;;;;;2.80;2.58;;;;;;;31.05;51.56;153857.56;6245086;23;20235;-63
2023/06/10 08:18:50;;;;;;;3.97;2.40;;;;;;;30.88;52.60;153813.91;6245304;23;20244;-64
2023/06/10 08:21:17;;;;;;;2.53;2.42;;;;;;;30.85;50.04;153807.53;6245456;23;20620;-63
2023/06/10 08:23:45;;;;;;;2.40;2.30;;;;;;;30.44;49.53;153703.66;6245083;23;20159;-63
2023/06/10 08:26:12;;;;;;;6.60;4.10;;;;;;;30.75;52.40;153781.88;6245699;23;20508;-63
2023/06/10 08:28:39;;;;;;;4.35;3.10;;;;;;;30.42;53.85;153697.22;6244995;23;20153;-63
2023/06/10 08:31:07;;;;;;;2.58;2.38;;;;;;;30.87;56.33;153812.63;6245244;23;20163;-64
2023/06/10 08:33:34;;;;;;;3.55;2.42;;;;;;;31.04;54.50;153854.97;6245362;23;20157;-64
2023/06/10 08:36:01;;;;;;;5.32;2.60;;;;;;;31.41;52.11;153949.88;6245639;23;20244;-63
2023/06/10 08:38:27;;;;;;;4.93;2.58;;;;;;;31.89;52.89;154070.50;6245475;23;20161;-63
2023/06/10 08:41:00;;;;;;;11.40;2.80;;;;;;;31.57;49.65;153989.72;6245175;23;20157;-64
2023/06/10 08:43:33;;;;;;;4.68;2.78;;;;;;;31.65;52.49;154010.22;6244819;23;20207;-63
2023/06/10 08:46:02;;;;;;;2.60;2.40;;;;;;;31.62;47.72;154003.78;6245003;23;20157;-63
2023/06/10 08:48:31;;;;;;;5.00;2.47;;;;;;;32.01;49.57;154101.28;6244773;23;20244;-63
2023/06/10 08:50:59;;;;;;;3.78;2.78;;;;;;;32.63;50.39;154259.25;6245567;23;20596;-63
2023/06/10 08:53:28;;;;;;;2.95;2.55;;;;;;;33.00;47.57;154354.22;6244654;23;20160;-64
2023/06/10 08:55:59;;;;;;;3.13;2.28;;;;;;;33.19;45.19;154401.75;6244861;23;20164;-64
2023/06/10 08:58:28;;;;;;;6.75;2.75;;;;;;;33.43;45.74;154462.13;6244958;23;20171;-64
2023/06/10 09:00:55;;;;;;;2.65;2.53;;;;;;;33.48;44.71;154476.22;6245098;23;20163;-64
2023/06/10 09:03:24;;;;;;;2.20;2.10;;;;;;;32.37;43.97;154193.75;6244688;23;20191;-63
2023/06/10 09:05:52;;;;;;;2.58;2.40;;;;;;;32.03;46.46;154106.44;6245289;23;20226;-64
2023/06/10 09:08:19;;;;;;;2.35;2.25;;;;;;;32.23;46.09;154156.50;6244609;23;20157;-64
2023/06/10 09:10:46;;;;;;;2.90;2.70;;;;;;;32.43;46.83;154207.81;6244659;23;20157;-64
2023/06/10 09:13:15;;;;;;;2.63;2.53;;;;;;;31.62;46.04;154003.78;6244985;23;20163;-64
2023/06/10 09:15:42;;;;;;;2.50;2.40;;;;;;;31.11;49.91;153872.91;6244388;23;20239;-63
2023/06/10 09:18:09;;;;;;;3.88;2.60;;;;;;;31.40;48.18;153947.34;6245030;23;20157;-63
2023/06/10 09:20:36;;;;;;;2.80;2.70;;;;;;;31.72;50.10;154028.16;6244525;23;20164;-64
2023/06/10 09:23:04;;;;;;;4.07;2.70;;;;;;;31.92;48.60;154079.47;6244912;23;20157;-64
2023/06/10 09:25:38;;;;;;;3.10;2.90;;;;;;;32.08;48.71;154120.56;6244847;23;20157;-64
2023/06/10 09:28:13;;;;;;;4.05;2.50;;;;;;;32.22;48.06;154153.94;6244434;23;20157;-64
2023/06/10 09:30:40;;;;;;;2.58;2.42;;;;;;;32.25;46.60;154161.66;6244588;23;20163;-64
2023/06/10 09:33:12;;;;;;;4.32;2.28;;;;;;;32.27;47.81;154166.78;6244541;23;20196;-64
2023/06/10 09:35:46;;;;;;;3.53;2.55;;;;;;;32.39;48.07;154197.56;6244882;23;20181;-63
2023/06/10 09:38:16;;;;;;;6.18;2.85;;;;;;;32.39;46.92;154197.56;6244490;23;20196;-64
2023/06/10 09:40:51;;;;;;;2.95;2.70;;;;;;;32.17;46.75;154142.38;6244684;23;20157;-64
2023/06/10 09:43:18;;;;;;;2.55;2.45;;;;;;;31.90;47.78;154073.09;6244286;23;20266;-64
2023/06/10 09:45:45;;;;;;;2.65;2.45;;;;;;;32.33;47.78;154182.19;6244684;23;20585;-64
2023/06/10 09:48:12;;;;;;;8.30;2.70;;;;;;;32.06;48.40;154115.41;6244336;23;20161;-63
2023/06/10 09:50:43;;;;;;;2.97;2.33;;;;;;;31.83;48.70;154055.13;6244221;23;20265;-64
2023/06/10 09:53:10;;;;;;;5.88;2.90;;;;;;;32.57;47.17;154245.06;6244520;23;20210;-63
2023/06/10 09:55:40;;;;;;;6.72;2.60;;;;;;;33.53;44.76;154487.75;6244197;23;20216;-64
2023/06/10 09:58:07;;;;;;;2.63;2.42;;;;;;;33.17;42.67;154395.34;6244351;23;20156;-64
2023/06/10 10:00:35;;;;;;;3.60;2.38;;;;;;;33.66;44.91;154521.22;6244199;23;20163;-63
2023/06/10 10:03:03;;;;;;;6.07;2.80;;;;;;;33.88;43.50;154576.44;6244441;23;20466;-64
2023/06/10 10:05:30;;;;;;;3.08;2.80;;;;;;;34.48;41.14;154729.34;6244754;23;20596;-64
2023/06/10 10:07:57;;;;;;;3.13;2.92;;;;;;;34.71;38.61;154788.47;6244258;23;20287;-64
2023/06/10 10:10:24;;;;;;;5.15;3.08;;;;;;;34.51;40.36;154737.06;6244078;23;20167;-64
2023/06/10 10:12:57;;;;;;;4.90;2.92;;;;;;;34.40;39.86;154710.09;6243991;23;20157;-64
2023/06/10 10:15:26;;;;;;;3.22;3.03;;;;;;;33.90;38.47;154581.59;6244289;23;20493;-63
2023/06/10 10:17:58;;;;;;;3.30;3.00;;;;;;;33.40;40.97;154454.38;6244388;23;20164;-64
2023/06/10 10:20:30;;;;;;;3.00;2.78;;;;;;;33.57;39.64;154498.03;6244018;23;20160;-64
2023/06/10 10:22:58;;;;;;;3.30;3.10;;;;;;;32.22;39.67;154155.22;6243925;23;20164;-64
2023/06/10 10:25:29;;;;;;;3.28;2.97;;;;;;;32.26;42.18;154165.47;6243975;23;20169;-63
2023/06/10 10:28:03;;;;;;;3.05;2.90;;;;;;;32.61;43.22;154255.38;6244532;23;20207;-64
2023/06/10 10:30:34;;;;;;;3.08;2.88;;;;;;;32.80;41.01;154302.88;6244020;23;20251;-63
2023/06/10 10:33:05;;;;;;;2.70;2.60;;;;;;;32.76;40.32;154292.56;6243869;23;20161;-64
2023/06/10 10:35:34;;;;;;;3.28;3.03;;;;;;;31.74;41.69;154033.34;6244214;23;20185;-63
2023/06/10 10:38:01;;;;;;;3.03;2.67;;;;;;;32.09;43.73;154123.16;6244073;23;20159;-64
2023/06/10 10:40:32;;;;;;;3.08;2.80;;;;;;;32.46;43.72;154216.81;6244214;23;20551;-64
2023/06/10 10:43:01;;;;;;;4.05;2.90;;;;;;;32.52;41.55;154232.22;6243776;23;20283;-64
2023/06/10 10:45:29;;;;;;;3.58;3.13;;;;;;;32.47;42.40;154219.38;6244511;23;20607;-64
2023/06/10 10:47:57;;;;;;;3.42;2.78;;;;;;;32.64;44.00;154261.78;6246075;23;20153;-63
2023/06/10 10:50:24;;;;;;;2.80;2.60;;;;;;;32.62;42.63;154256.66;6246143;23;20181;-63
2023/06/10 10:52:56;;;;;;;4.45;2.78;;;;;;;32.39;42.28;154198.84;6245857;23;20164;-64
2023/06/10 10:55:23;;;;;;;3.38;2.83;;;;;;;32.24;41.94;154159.09;6246309;23;20635;-64
2023/06/10 10:57:58;;;;;;;7.82;3.10;;;;;;;32.05;42.92;154112.84;6246266;23;20248;-63
2023/06/10 11:00:34;;;;;;;4.28;2.70;;;;;;;32.07;44.79;154118.00;6245854;23;20166;-64
2023/06/10 11:03:07;;;;;;;4.05;3.15;;;;;;;31.99;46.06;154096.19;6246320;23;20156;-64
2023/06/10 11:05:41;;;;;;;5.07;2.33;;;;;;;31.97;46.56;154091.03;6246361;23;20172;-63
2023/06/10 11:08:09;;;;;;;6.40;2.97;;;;;;;32.09;47.94;154123.16;6246024;23;20162;-63
2023/06/10 11:10:37;;;;;;;3.10;2.88;;;;;;;32.24;48.03;154159.09;6245995;23;20259;-63
2023/06/10 11:13:09;;;;;;;3.33;2.83;;;;;;;32.17;46.13;154142.38;6245974;23;20239;-63
2023/06/10 11:15:43;;;;;;;3.08;2.88;;;;;;;32.37;46.34;154193.75;6245631;23;20180;-63
2023/06/10 11:18:12;;;;;;;3.45;3.15;;;;;;;32.48;45.34;154220.66;6246240;23;20524;-63
2023/06/10 11:21:09;;;;;;;3.63;3.15;;;;;;;32.03;45.47;154107.72;6245998;23;20189;-64